Wednesday, October 17, 2018, 3:48 AM EDT
Back to Local

KMUI, Muir Army Air Field / Indiantown

Location: Jonestown, PA, United States Lat: 40.433
Local Time: 3:48 AM EDT ( 7:48 GMT) Lon: -76.567
Time Zone: US/Eastern Elev: 488 ft

Show me the last for .
Show Decoded

2018-10-17 02:56 METAR KMUI 170656Z AUTO 00000KT 8SM CLR 03/02 A3004 RMK AO2 SLP177 T00310022 $ =
2018-10-17 01:56 METAR KMUI 170556Z AUTO 00000KT 10SM CLR 03/03 A3006 RMK AO2 SLP185 T00340025
                 10070 20034 57007 $ =
2018-10-17 00:56 METAR KMUI 170456Z AUTO 00000KT 10SM CLR 04/03 A3007 RMK AO2 SLP188 T00380029
                 401360036 $ =
2018-10-16 23:56 METAR KMUI 170356Z AUTO 00000KT 10SM CLR 04/04 A3008 RMK AO2 SLPNO T00440035 $ =
2018-10-16 22:56 METAR KMUI 170256Z AUTO 00000KT 10SM CLR 05/04 A3008 RMK AO2 SLPNO T00520039
                 55001 $ =
2018-10-16 21:56 METAR KMUI 170156Z AUTO 00000KT 10SM CLR 05/04 A3008 RMK AO2 SLPNO T00510039 $ =
2018-10-16 20:56 METAR KMUI 170056Z AUTO 00000KT 10SM CLR 06/04 A3008 RMK AO2 SLP191 T00590044 $
                 =
2018-10-16 19:56 METAR KMUI 162356Z AUTO 00000KT 10SM CLR 07/05 A3008 RMK AO2 SLP191 T00660046
                 10122 20066 58002 $ =
2018-10-16 18:56 METAR KMUI 162256Z AUTO 00000KT 10SM CLR 08/05 A3009 RMK AO2 SLP194 T00760045 $
                 =
2018-10-16 17:56 METAR KMUI 162156Z 25006KT 10SM BKN200 11/02 A3009 RMK AO2A SLP194 T01060022 $ =
2018-10-16 16:56 METAR KMUI 162056Z 23008KT 10SM BKN200 12/02 A3009 RMK AO2A SLP193 T01160018
                 56015 $ =
2018-10-16 15:56 METAR KMUI 161956Z 28007KT 10SM BKN200 12/01 A3009 RMK AO2A SLP193 T01170010 $ =
2018-10-16 14:56 METAR KMUI 161856Z 27004KT 10SM BKN200 12/01 A3011 RMK AO2A SLP200 T01180006 $ =
2018-10-16 13:56 METAR KMUI 161756Z 25009KT 10SM BKN200 BKN250 11/01 A3014 RMK AO2A SLP210
                 T01110005 10113 20074 $ =
2018-10-16 12:56 METAR KMUI 161656Z 25003KT 10SM BKN190 BKN250 11/00 A3017 RMK AO2A SLP220
                 T01100001 $ =
2018-10-16 11:56 METAR KMUI 161556Z 29003KT 10SM FEW150 BKN200 BKN250 10/00 A3019 RMK AO2A SLP227
                 T01040001 $ =
2018-10-16 10:56 METAR KMUI 161456Z AUTO 28007KT 10SM CLR 09/M01 A3020 RMK AO2 SLP230 T00871006
                 58001 $ =
2018-10-16 09:56 METAR KMUI 161356Z 31010G15KT 250V350 10SM SCT180 BKN250 08/M01 A3022 RMK AO2A
                 SLP237 T00811009 $ =
2018-10-16 08:56 METAR KMUI 161256Z 32004KT 10SM FEW180 BKN250 08/00 A3021 RMK AO2A SLP233
                 T00791003 $ =
2018-10-16 07:56 METAR KMUI 161156Z 00000KT 10SM SCT180 BKN250 08/00 A3020 RMK AO2A SLP230 70003
                 T00761001 10123 20073 52021 $ =
2018-10-16 06:56 METAR KMUI 161056Z 27008KT 10SM BKN250 08/M01 A3019 RMK AO2A SLP227 T00821008 $
                 =
2018-10-16 05:56 METAR KMUI 160956Z AUTO 31003KT 10SM CLR 09/00 A3016 RMK AO2 SLP216 T00921001 $
                 =
2018-10-16 04:56 METAR KMUI 160856Z AUTO 32008KT 10SM CLR 10/04 A3014 RMK AO2 SLP210 T01020035
                 53016 $ =
2018-10-16 03:56 METAR KMUI 160756Z AUTO 27008KT 10SM CLR 11/03 A3012 RMK AO2 SLP202 T01100028 $
                 =

Support USWX by starting your Amazon purchase here.